createdAt,value
2023-02-12T00:01:22.615Z,3.65
2023-02-12T00:03:49.992Z,3.25
2023-02-12T00:06:17.280Z,2.65
2023-02-12T00:08:44.330Z,2.90
2023-02-12T00:11:16.836Z,2.53
2023-02-12T00:13:44.129Z,1.40
2023-02-12T00:16:14.793Z,2.53
2023-02-12T00:18:42.485Z,5.30
2023-02-12T00:21:10.131Z,7.50
2023-02-12T00:23:39.139Z,2.42
2023-02-12T00:26:08.552Z,6.97
2023-02-12T00:28:35.848Z,6.85
2023-02-12T00:31:07.287Z,2.25
2023-02-12T00:33:34.905Z,4.55
2023-02-12T00:36:02.424Z,2.97
2023-02-12T00:38:29.506Z,5.40
2023-02-12T00:40:56.912Z,1.98
2023-02-12T00:43:23.815Z,3.05
2023-02-12T00:45:51.062Z,3.17
2023-02-12T00:48:18.224Z,2.67
2023-02-12T00:50:46.953Z,5.07
2023-02-12T00:53:14.312Z,7.18
2023-02-12T00:55:42.145Z,3.63
2023-02-12T00:58:09.743Z,2.63
2023-02-12T01:00:36.987Z,1.38
2023-02-12T01:03:04.603Z,2.50
2023-02-12T01:05:33.210Z,1.42
2023-02-12T01:08:00.708Z,3.03
2023-02-12T01:10:28.294Z,4.72
2023-02-12T01:12:55.843Z,3.85
2023-02-12T01:15:23.795Z,3.33
2023-02-12T01:17:54.372Z,2.63
2023-02-12T01:20:24.049Z,1.88
2023-02-12T01:22:51.268Z,1.40
2023-02-12T01:25:20.533Z,2.05
2023-02-12T01:27:47.955Z,3.28
2023-02-12T01:30:16.192Z,3.10
2023-02-12T01:32:44.094Z,2.70
2023-02-12T01:35:11.836Z,1.70
2023-02-12T01:37:41.101Z,2.38
2023-02-12T01:40:09.340Z,2.25
2023-02-12T01:42:36.247Z,1.00
2023-02-12T01:45:12.738Z,2.10
2023-02-12T01:47:41.575Z,1.73
2023-02-12T01:50:12.870Z,2.40
2023-02-12T01:52:46.610Z,1.77
2023-02-12T01:55:15.070Z,2.17
2023-02-12T01:57:45.804Z,3.50
2023-02-12T02:00:16.937Z,4.30
2023-02-12T02:02:48.091Z,1.33
2023-02-12T02:07:45.618Z,2.25
2023-02-12T02:10:12.951Z,1.65
2023-02-12T02:12:58.378Z,2.28
2023-02-12T02:15:30.521Z,1.70
2023-02-12T02:18:26.986Z,5.13
2023-02-12T02:21:22.271Z,1.60
2023-02-12T02:24:10.346Z,1.52
2023-02-12T02:27:10.481Z,1.42
2023-02-12T02:30:26.535Z,2.85
2023-02-12T02:33:13.778Z,1.88
2023-02-12T02:35:54.528Z,1.35
2023-02-12T02:38:35.742Z,2.45
2023-02-12T02:41:02.584Z,3.67
2023-02-12T02:43:35.796Z,1.20
2023-02-12T02:46:09.982Z,3.15
2023-02-12T02:48:41.893Z,2.42
2023-02-12T02:51:14.344Z,2.25
2023-02-12T02:53:51.561Z,3.83
2023-02-12T02:56:22.895Z,3.55
2023-02-12T02:59:01.518Z,1.80
2023-02-12T03:01:36.658Z,2.33
2023-02-12T03:04:08.172Z,1.25
2023-02-12T03:06:47.091Z,1.73
2023-02-12T03:09:20.552Z,2.63
2023-02-12T03:11:47.971Z,2.47
2023-02-12T03:14:23.430Z,1.10
2023-02-12T03:17:04.429Z,1.10
2023-02-12T03:19:44.325Z,2.55
2023-02-12T03:22:16.653Z,2.95
2023-02-12T03:25:01.902Z,1.45
2023-02-12T03:27:40.382Z,1.85
2023-02-12T03:30:08.917Z,1.80
2023-02-12T03:32:38.638Z,2.30
2023-02-12T03:35:10.367Z,0.95
2023-02-12T03:37:46.788Z,2.15
2023-02-12T03:40:53.735Z,1.85
2023-02-12T03:43:27.648Z,1.40
2023-02-12T03:46:27.080Z,3.22
2023-02-12T03:49:02.262Z,2.03
2023-02-12T03:51:36.830Z,1.00
2023-02-12T03:54:06.225Z,1.17
2023-02-12T03:56:40.976Z,2.60
2023-02-12T03:59:08.269Z,2.00
2023-02-12T04:01:36.067Z,1.05
2023-02-12T04:04:05.320Z,1.20
2023-02-12T04:06:32.752Z,1.15
2023-02-12T04:09:04.283Z,2.00
2023-02-12T04:11:40.530Z,1.50
2023-02-12T04:14:23.292Z,1.10
2023-02-12T04:17:14.923Z,1.85
2023-02-12T04:23:06.737Z,2.22
2023-02-12T04:25:51.855Z,5.38
2023-02-12T04:28:44.184Z,4.68
2023-02-12T04:31:29.103Z,2.13
2023-02-12T04:34:14.509Z,1.40
2023-02-12T04:36:58.005Z,1.98
2023-02-12T04:39:31.988Z,2.92
2023-02-12T04:42:00.988Z,4.63
2023-02-12T04:44:31.775Z,5.65
2023-02-12T04:46:58.771Z,2.10
2023-02-12T04:49:26.855Z,1.98
2023-02-12T04:51:54.197Z,3.35
2023-02-12T04:54:22.472Z,2.40
2023-02-12T04:56:50.120Z,3.45
2023-02-12T04:59:17.778Z,2.90
2023-02-12T05:01:45.715Z,2.00
2023-02-12T05:04:16.001Z,1.63
2023-02-12T05:06:43.889Z,2.38
2023-02-12T05:09:15.941Z,1.73
2023-02-12T05:11:43.431Z,3.35
2023-02-12T05:14:11.282Z,2.42
2023-02-12T05:16:38.626Z,3.22
2023-02-12T05:19:05.924Z,2.35
2023-02-12T05:21:32.945Z,2.47
2023-02-12T05:24:03.126Z,1.90
2023-02-12T05:26:30.427Z,2.15
2023-02-12T05:28:57.845Z,2.95
2023-02-12T05:31:25.052Z,2.33
2023-02-12T05:33:52.647Z,3.08
2023-02-12T05:36:24.007Z,2.70
2023-02-12T05:38:52.295Z,2.63
2023-02-12T05:41:23.322Z,5.60
2023-02-12T05:43:51.136Z,2.13
2023-02-12T05:46:19.808Z,2.42
2023-02-12T05:48:47.521Z,5.65
2023-02-12T05:51:17.199Z,3.10
2023-02-12T05:53:44.338Z,2.65
2023-02-12T05:56:11.465Z,2.45
2023-02-12T05:58:39.344Z,2.97
2023-02-12T06:01:14.374Z,3.08
2023-02-12T06:03:41.807Z,4.47
2023-02-12T06:06:09.232Z,2.55
2023-02-12T06:08:37.049Z,2.17
2023-02-12T06:11:07.113Z,2.30
2023-02-12T06:13:34.956Z,3.08
2023-02-12T06:16:02.321Z,2.45
2023-02-12T06:18:29.589Z,3.03
2023-02-12T06:20:57.036Z,4.10
2023-02-12T06:23:24.967Z,3.90
2023-02-12T06:25:57.283Z,3.00
2023-02-12T06:28:25.066Z,2.78
2023-02-12T06:30:52.436Z,2.80
2023-02-12T06:33:19.766Z,2.35
2023-02-12T06:35:46.785Z,4.30
2023-02-12T06:38:14.159Z,2.25
2023-02-12T06:40:41.488Z,2.47
2023-02-12T06:43:08.927Z,1.90
2023-02-12T06:45:35.857Z,2.75
2023-02-12T06:48:03.197Z,2.67
2023-02-12T06:50:30.745Z,2.95
2023-02-12T06:52:59.016Z,2.75
2023-02-12T06:55:26.080Z,6.25
2023-02-12T06:57:53.295Z,2.65
2023-02-12T07:00:20.885Z,4.78
2023-02-12T07:02:53.583Z,4.55
2023-02-12T07:05:20.730Z,2.85
2023-02-12T07:07:47.959Z,5.85
2023-02-12T07:10:14.905Z,2.47
2023-02-12T07:12:42.104Z,3.60
2023-02-12T07:15:09.556Z,3.53
2023-02-12T07:17:36.926Z,3.03
2023-02-12T07:20:05.288Z,3.90
2023-02-12T07:22:36.297Z,4.00
2023-02-12T07:25:03.209Z,5.57
2023-02-12T07:27:30.442Z,2.58
2023-02-12T07:29:57.548Z,3.25
2023-02-12T07:32:24.960Z,3.45
2023-02-12T07:34:51.925Z,3.58
2023-02-12T07:37:22.840Z,1.92
2023-02-12T07:39:50.252Z,2.38
2023-02-12T07:42:18.350Z,3.25
2023-02-12T07:44:49.703Z,2.30
2023-02-12T07:47:16.946Z,2.33
2023-02-12T07:49:43.959Z,5.05
2023-02-12T07:52:13.367Z,2.88
2023-02-12T07:54:40.404Z,3.55
2023-02-12T07:57:07.661Z,2.80
2023-02-12T07:59:34.591Z,2.15
2023-02-12T08:02:01.868Z,4.80
2023-02-12T08:04:28.841Z,4.32
2023-02-12T08:06:56.760Z,2.15
2023-02-12T08:09:26.763Z,4.65
2023-02-12T08:11:54.290Z,3.25
2023-02-12T08:14:22.349Z,3.25
2023-02-12T08:16:50.660Z,3.80
2023-02-12T08:19:22.437Z,4.25
2023-02-12T08:21:55.547Z,2.65
2023-02-12T08:24:23.823Z,2.90
2023-02-12T08:26:52.054Z,5.30
2023-02-12T08:29:24.772Z,3.85
2023-02-12T08:31:59.925Z,3.08
2023-02-12T08:34:30.203Z,2.50
2023-02-12T08:36:58.591Z,1.95
2023-02-12T08:39:28.811Z,2.20
2023-02-12T08:41:57.883Z,3.33
2023-02-12T08:44:25.028Z,2.10
2023-02-12T08:46:53.275Z,2.60
2023-02-12T08:49:22.903Z,3.13
2023-02-12T08:51:53.031Z,3.97
2023-02-12T08:54:25.823Z,3.25
2023-02-12T08:57:01.459Z,3.03
2023-02-12T08:59:29.033Z,2.63
2023-02-12T09:01:56.295Z,3.47
2023-02-12T09:04:25.970Z,4.50
2023-02-12T09:06:53.831Z,2.78
2023-02-12T09:09:21.288Z,3.55
2023-02-12T09:11:49.621Z,2.85
2023-02-12T09:14:18.922Z,4.95
2023-02-12T09:16:46.340Z,3.80
2023-02-12T09:19:14.264Z,6.20
2023-02-12T09:21:42.141Z,4.50
2023-02-12T09:24:09.889Z,5.45
2023-02-12T09:26:37.472Z,4.07
2023-02-12T09:29:04.804Z,4.70
2023-02-12T09:31:33.416Z,5.90
2023-02-12T09:34:03.416Z,5.63
2023-02-12T09:36:31.251Z,10.93
2023-02-12T09:38:59.536Z,5.32
2023-02-12T09:41:39.378Z,5.13
2023-02-12T09:44:30.916Z,6.88
2023-02-12T09:49:48.980Z,4.55
2023-02-12T09:52:26.848Z,7.65
2023-02-12T09:54:54.249Z,6.68
2023-02-12T09:57:29.509Z,4.95
2023-02-12T10:00:06.842Z,5.70
2023-02-12T10:02:37.300Z,7.18
2023-02-12T10:05:06.689Z,7.47
2023-02-12T10:07:45.214Z,5.90
2023-02-12T10:10:29.781Z,12.13
2023-02-12T10:13:13.685Z,7.85
2023-02-12T10:15:43.363Z,7.93
2023-02-12T10:18:39.375Z,5.95
2023-02-12T10:21:17.641Z,7.32
2023-02-12T10:24:00.710Z,6.25
2023-02-12T10:26:35.936Z,6.85
2023-02-12T10:29:34.284Z,5.57
2023-02-12T10:32:28.477Z,8.90
2023-02-12T10:34:57.277Z,6.93
2023-02-12T10:37:35.296Z,5.63
2023-02-12T10:40:15.240Z,6.00
2023-02-12T10:42:45.301Z,7.57
2023-02-12T10:45:15.325Z,8.63
2023-02-12T10:47:42.461Z,8.88
2023-02-12T10:50:23.295Z,10.48
2023-02-12T10:52:55.891Z,6.53
2023-02-12T10:55:35.186Z,7.68
2023-02-12T10:58:05.034Z,5.10
2023-02-12T11:00:35.227Z,6.70
2023-02-12T11:03:22.473Z,6.95
2023-02-12T11:05:50.067Z,8.88
2023-02-12T11:08:32.109Z,5.70
2023-02-12T11:11:31.199Z,6.55
2023-02-12T11:14:00.409Z,7.93
2023-02-12T11:16:46.686Z,8.05
2023-02-12T11:19:28.517Z,6.65
2023-02-12T11:22:14.596Z,7.72
2023-02-12T11:24:41.544Z,9.95
2023-02-12T11:27:26.498Z,7.25
2023-02-12T11:30:21.232Z,7.43
2023-02-12T11:32:49.527Z,7.30
2023-02-12T11:35:27.006Z,6.95
2023-02-12T11:37:57.745Z,15.60
2023-02-12T11:40:28.640Z,11.75
2023-02-12T11:42:59.183Z,11.25
2023-02-12T11:45:41.672Z,8.55
2023-02-12T11:48:29.420Z,7.75
2023-02-12T11:50:59.480Z,8.18
2023-02-12T11:53:35.988Z,13.23
2023-02-12T11:56:08.597Z,8.82
2023-02-12T11:58:36.064Z,8.32
2023-02-12T12:01:21.026Z,9.10
2023-02-12T12:03:57.622Z,8.85
2023-02-12T12:06:31.545Z,7.18
2023-02-12T12:09:24.119Z,9.05
2023-02-12T12:11:59.243Z,7.07
2023-02-12T12:15:01.335Z,8.80
2023-02-12T12:20:29.659Z,6.80
2023-02-12T12:23:21.890Z,7.85
2023-02-12T12:25:57.704Z,7.20
2023-02-12T12:28:31.607Z,8.32
2023-02-12T12:31:06.826Z,7.82
2023-02-12T12:33:40.968Z,5.68
2023-02-12T12:36:14.506Z,5.13
2023-02-12T12:38:41.509Z,9.07
2023-02-12T12:41:30.747Z,9.00
2023-02-12T12:44:13.745Z,6.63
2023-02-12T12:47:05.224Z,8.57
2023-02-12T12:49:50.597Z,7.88
2023-02-12T12:52:25.389Z,7.45
2023-02-12T12:55:19.196Z,7.07
2023-02-12T12:57:58.663Z,7.40
2023-02-12T13:00:39.408Z,8.23
2023-02-12T13:03:37.576Z,8.23
2023-02-12T13:06:22.846Z,6.35
2023-02-12T13:09:02.302Z,8.43
2023-02-12T13:11:44.191Z,7.78
2023-02-12T13:14:28.034Z,13.07
2023-02-12T13:17:10.681Z,9.38
2023-02-12T13:20:03.045Z,8.35
2023-02-12T13:22:35.242Z,8.85
2023-02-12T13:25:16.757Z,8.52
2023-02-12T13:27:46.436Z,6.78
2023-02-12T13:30:22.248Z,9.30
2023-02-12T13:33:12.309Z,10.10
2023-02-12T13:35:46.240Z,10.55
2023-02-12T13:38:23.135Z,7.65
2023-02-12T13:40:54.687Z,9.65
2023-02-12T13:43:27.304Z,13.18
2023-02-12T13:46:14.108Z,8.20
2023-02-12T13:48:58.901Z,6.22
2023-02-12T13:51:50.556Z,7.85
2023-02-12T13:54:36.323Z,8.55
2023-02-12T13:57:09.755Z,8.18
2023-02-12T13:59:36.587Z,7.57
2023-02-12T14:02:12.942Z,8.85
2023-02-12T14:04:55.497Z,13.70
2023-02-12T14:07:24.604Z,7.78
2023-02-12T14:09:51.516Z,8.65
2023-02-12T14:12:43.038Z,9.25
2023-02-12T14:15:26.137Z,9.82
2023-02-12T14:18:07.158Z,8.48
2023-02-12T14:20:36.603Z,9.68
2023-02-12T14:23:03.782Z,7.93
2023-02-12T14:25:38.814Z,10.60
2023-02-12T14:28:07.328Z,9.40
2023-02-12T14:30:39.180Z,9.45
2023-02-12T14:33:07.369Z,9.93
2023-02-12T14:35:44.342Z,10.48
2023-02-12T14:38:11.563Z,9.73
2023-02-12T14:40:42.221Z,10.32
2023-02-12T14:43:28.239Z,10.10
2023-02-12T14:45:57.319Z,9.00
2023-02-12T14:48:46.457Z,12.68
2023-02-12T14:51:33.319Z,9.15
2023-02-12T14:54:01.374Z,8.63
2023-02-12T14:56:28.516Z,11.60
2023-02-12T14:58:58.778Z,7.85
2023-02-12T15:01:35.269Z,10.85
2023-02-12T15:04:17.517Z,12.45
2023-02-12T15:06:53.637Z,10.32
2023-02-12T15:09:35.735Z,11.88
2023-02-12T15:12:27.333Z,8.60
2023-02-12T15:15:05.994Z,8.93
2023-02-12T15:17:37.973Z,13.32
2023-02-12T15:20:13.903Z,10.13
2023-02-12T15:22:41.264Z,14.18
2023-02-12T15:25:26.260Z,10.98
2023-02-12T15:28:00.395Z,13.13
2023-02-12T15:30:35.385Z,11.73
2023-02-12T15:33:08.089Z,11.27
2023-02-12T15:35:39.846Z,15.25
2023-02-12T15:40:54.092Z,12.82
2023-02-12T15:43:21.027Z,17.48
2023-02-12T15:45:52.798Z,15.32
2023-02-12T15:50:48.199Z,14.45
2023-02-12T15:53:16.538Z,15.82
2023-02-12T15:55:46.815Z,19.10
2023-02-12T15:58:24.943Z,15.55
2023-02-12T16:00:54.643Z,21.30
2023-02-12T16:03:23.670Z,15.00
2023-02-12T16:05:52.554Z,23.38
2023-02-12T16:08:22.563Z,20.33
2023-02-12T16:10:53.226Z,21.10
2023-02-12T16:13:35.472Z,21.67
2023-02-12T16:16:13.314Z,21.25
2023-02-12T16:18:41.963Z,22.05
2023-02-12T16:21:17.670Z,20.98
2023-02-12T16:23:46.338Z,19.13
2023-02-12T16:26:23.075Z,22.58
2023-02-12T16:28:53.395Z,20.52
2023-02-12T16:31:23.812Z,20.00
2023-02-12T16:33:54.010Z,24.00
2023-02-12T16:36:22.583Z,18.63
2023-02-12T16:38:50.846Z,20.08
2023-02-12T16:41:18.173Z,21.33
2023-02-12T16:43:46.683Z,22.10
2023-02-12T16:46:16.618Z,23.52
2023-02-12T16:48:49.759Z,23.92
2023-02-12T16:51:32.080Z,23.05
2023-02-12T16:54:01.503Z,22.55
2023-02-12T16:56:34.194Z,27.40
2023-02-12T16:59:02.148Z,21.40
2023-02-12T17:01:34.063Z,25.65
2023-02-12T17:04:04.737Z,26.40
2023-02-12T17:06:32.760Z,29.70
2023-02-12T17:09:00.482Z,28.65
2023-02-12T17:11:29.092Z,25.92
2023-02-12T17:13:57.045Z,26.38
2023-02-12T17:16:30.714Z,27.92
2023-02-12T17:18:59.261Z,29.60
2023-02-12T17:21:32.587Z,29.90
2023-02-12T17:23:59.636Z,32.47
2023-02-12T17:26:27.008Z,31.90
2023-02-12T17:28:53.925Z,28.13
2023-02-12T17:31:21.313Z,30.77
2023-02-12T17:33:48.462Z,31.90
2023-02-12T17:36:15.768Z,27.88
2023-02-12T17:38:42.825Z,33.13
2023-02-12T17:41:11.110Z,27.38
2023-02-12T17:43:38.238Z,31.60
2023-02-12T17:46:14.159Z,26.02
2023-02-12T17:48:41.249Z,25.27
2023-02-12T17:51:09.950Z,30.40
2023-02-12T17:53:36.921Z,31.02
2023-02-12T17:56:04.763Z,31.27
2023-02-12T17:58:31.711Z,31.45
2023-02-12T18:01:05.640Z,31.95
2023-02-12T18:03:32.939Z,31.63
2023-02-12T18:06:00.738Z,32.33
2023-02-12T18:08:28.148Z,32.10
2023-02-12T18:10:55.736Z,32.35
2023-02-12T18:13:23.463Z,30.05
2023-02-12T18:15:51.697Z,31.90
2023-02-12T18:18:18.957Z,25.65
2023-02-12T18:20:46.255Z,26.88
2023-02-12T18:23:13.228Z,29.85
2023-02-12T18:25:42.348Z,23.67
2023-02-12T18:28:10.522Z,28.65
2023-02-12T18:30:39.134Z,25.08
2023-02-12T18:33:06.305Z,28.30
2023-02-12T18:35:34.018Z,32.33
2023-02-12T18:38:00.940Z,26.20
2023-02-12T18:40:28.229Z,25.40
2023-02-12T18:42:55.246Z,28.83
2023-02-12T18:45:22.487Z,26.50
2023-02-12T18:47:49.328Z,27.48
2023-02-12T18:50:16.718Z,25.98
2023-02-12T18:52:43.674Z,31.38
2023-02-12T18:55:11.429Z,37.33
2023-02-12T18:57:38.711Z,36.08
2023-02-12T19:00:06.702Z,32.60
2023-02-12T19:02:33.832Z,27.88
2023-02-12T19:05:01.183Z,32.00
2023-02-12T19:07:28.132Z,26.13
2023-02-12T19:09:55.482Z,33.75
2023-02-12T19:12:22.632Z,29.92
2023-02-12T19:14:49.822Z,34.85
2023-02-12T19:17:16.721Z,30.23
2023-02-12T19:19:44.071Z,33.25
2023-02-12T19:22:11.057Z,31.67
2023-02-12T19:24:46.756Z,35.47
2023-02-12T19:27:14.186Z,31.15
2023-02-12T19:29:41.535Z,30.02
2023-02-12T19:32:08.679Z,31.70
2023-02-12T19:34:35.983Z,31.50
2023-02-12T19:37:02.958Z,33.15
2023-02-12T19:39:30.303Z,31.88
2023-02-12T19:41:57.244Z,31.27
2023-02-12T19:44:25.577Z,32.78
2023-02-12T19:46:53.516Z,34.60
2023-02-12T19:49:23.829Z,33.13
2023-02-12T19:51:51.689Z,36.10
2023-02-12T19:54:20.871Z,35.10
2023-02-12T19:56:48.439Z,37.10
2023-02-12T19:59:17.799Z,33.13
2023-02-12T20:01:45.987Z,39.33
2023-02-12T20:04:15.041Z,36.22
2023-02-12T20:06:43.503Z,37.58
2023-02-12T20:09:11.573Z,39.35
2023-02-12T20:11:39.299Z,38.28
2023-02-12T20:14:10.211Z,33.67
2023-02-12T20:16:39.123Z,34.47
2023-02-12T20:19:12.879Z,38.47
2023-02-12T20:21:41.034Z,31.77
2023-02-12T20:24:08.516Z,33.72
2023-02-12T20:26:36.140Z,33.55
2023-02-12T20:29:05.205Z,32.33
2023-02-12T20:31:36.284Z,35.53
2023-02-12T20:34:07.705Z,36.33
2023-02-12T20:36:37.013Z,33.88
2023-02-12T20:39:05.998Z,32.78
2023-02-12T20:41:34.868Z,33.25
2023-02-12T20:44:02.119Z,27.80
2023-02-12T20:46:29.205Z,31.02
2023-02-12T20:48:57.787Z,28.55
2023-02-12T20:51:27.264Z,29.55
2023-02-12T20:53:55.615Z,28.50
2023-02-12T20:56:31.831Z,29.08
2023-02-12T20:59:00.495Z,26.60
2023-02-12T21:01:36.293Z,32.00
2023-02-12T21:04:06.590Z,36.78
2023-02-12T21:06:34.845Z,30.77
2023-02-12T21:09:03.218Z,31.65
2023-02-12T21:11:30.321Z,30.05
2023-02-12T21:14:18.394Z,35.10
2023-02-12T21:16:46.251Z,35.20
2023-02-12T21:19:17.880Z,28.48
2023-02-12T21:21:45.532Z,30.40
2023-02-12T21:24:17.280Z,35.47
2023-02-12T21:26:44.444Z,29.70
2023-02-12T21:29:11.679Z,31.50
2023-02-12T21:31:44.590Z,38.97
2023-02-12T21:34:19.628Z,34.63
2023-02-12T21:36:48.325Z,33.97
2023-02-12T21:39:26.111Z,33.22
2023-02-12T21:41:55.870Z,34.83
2023-02-12T21:44:24.703Z,33.15
2023-02-12T21:46:52.409Z,40.33
2023-02-12T21:49:27.622Z,36.58
2023-02-12T21:51:57.994Z,38.90
2023-02-12T21:54:26.134Z,39.28
2023-02-12T21:56:53.097Z,41.03
2023-02-12T21:59:20.393Z,41.92
2023-02-12T22:01:50.973Z,40.00
2023-02-12T22:04:19.128Z,38.63
2023-02-12T22:06:48.331Z,47.17
2023-02-12T22:09:18.629Z,39.63
2023-02-12T22:11:45.663Z,44.38
2023-02-12T22:14:15.093Z,48.70
2023-02-12T22:16:42.455Z,45.40
2023-02-12T22:19:09.913Z,49.00
2023-02-12T22:21:40.241Z,44.28
2023-02-12T22:24:10.880Z,43.17
2023-02-12T22:26:38.046Z,45.53
2023-02-12T22:29:08.501Z,53.35
2023-02-12T22:31:37.478Z,43.65
2023-02-12T22:34:08.358Z,55.63
2023-02-12T22:36:37.092Z,52.78
2023-02-12T22:39:05.766Z,59.60
2023-02-12T22:41:33.526Z,52.85
2023-02-12T22:44:02.494Z,60.40
2023-02-12T22:46:29.526Z,56.00
2023-02-12T22:48:56.882Z,58.38
2023-02-12T22:51:26.903Z,50.47
2023-02-12T22:53:54.870Z,57.40
2023-02-12T22:56:23.130Z,54.42
2023-02-12T22:58:58.155Z,53.85
2023-02-12T23:01:26.351Z,55.53
2023-02-12T23:03:53.730Z,56.25
2023-02-12T23:06:27.770Z,54.60
2023-02-12T23:08:59.070Z,58.17
2023-02-12T23:11:28.242Z,51.80
2023-02-12T23:13:56.409Z,51.60
2023-02-12T23:16:23.850Z,47.58
2023-02-12T23:18:56.570Z,51.58
2023-02-12T23:21:24.469Z,48.47
2023-02-12T23:23:52.063Z,51.28
2023-02-12T23:26:19.227Z,41.65
2023-02-12T23:28:46.586Z,56.65
2023-02-12T23:31:13.891Z,48.55
2023-02-12T23:33:41.115Z,40.75
2023-02-12T23:36:08.316Z,45.60
2023-02-12T23:38:35.501Z,46.08
2023-02-12T23:41:02.524Z,48.22
2023-02-12T23:43:29.911Z,42.38
2023-02-12T23:45:56.859Z,43.35
2023-02-12T23:48:24.261Z,45.55
2023-02-12T23:50:51.106Z,47.55
2023-02-12T23:53:19.351Z,41.65
2023-02-12T23:55:51.138Z,49.53
2023-02-12T23:58:18.381Z,48.10
